createdAt,value
2022-11-09T00:02:16.594Z,8.90
2022-11-09T00:07:21.848Z,8.60
2022-11-09T00:12:27.100Z,8.40
2022-11-09T00:17:32.180Z,8.30
2022-11-09T00:22:37.592Z,8.30
2022-11-09T00:27:44.152Z,8.20
2022-11-09T00:32:49.191Z,7.80
2022-11-09T00:37:55.640Z,7.70
2022-11-09T00:43:00.792Z,7.50
2022-11-09T00:48:06.075Z,7.40
2022-11-09T00:53:11.040Z,7.50
2022-11-09T00:58:16.561Z,7.10
2022-11-09T01:03:22.291Z,7.20
2022-11-09T01:08:27.304Z,7.30
2022-11-09T01:13:32.212Z,7.20
2022-11-09T01:18:38.754Z,7.00
2022-11-09T01:23:43.310Z,7.50
2022-11-09T01:28:49.275Z,7.10
2022-11-09T01:33:54.239Z,7.00
2022-11-09T01:38:59.128Z,6.90
2022-11-09T01:44:07.901Z,7.00
2022-11-09T01:49:22.204Z,7.50
2022-11-09T01:54:30.998Z,8.00
2022-11-09T01:59:39.338Z,9.10
2022-11-09T02:04:50.950Z,9.40
2022-11-09T02:10:14.019Z,9.60
2022-11-09T02:15:20.304Z,9.70
2022-11-09T02:20:26.641Z,9.80
2022-11-09T02:25:32.512Z,9.60
2022-11-09T02:30:38.523Z,9.70
2022-11-09T02:35:43.845Z,9.60
2022-11-09T02:40:53.005Z,9.50
2022-11-09T02:45:58.275Z,9.50
2022-11-09T02:51:03.489Z,9.50
2022-11-09T02:56:09.151Z,9.50
2022-11-09T03:01:14.603Z,9.60
2022-11-09T03:06:20.686Z,9.60
2022-11-09T03:11:25.727Z,9.70
2022-11-09T03:16:31.775Z,9.40
2022-11-09T03:21:36.895Z,9.60
2022-11-09T03:26:42.086Z,9.40
2022-11-09T03:31:47.324Z,9.30
2022-11-09T03:36:52.309Z,9.30
2022-11-09T03:41:57.658Z,9.10
2022-11-09T03:47:02.989Z,9.00
2022-11-09T03:52:08.759Z,8.90
2022-11-09T03:57:13.816Z,8.80
2022-11-09T04:02:18.790Z,8.90
2022-11-09T04:07:24.840Z,8.90
2022-11-09T04:12:30.025Z,8.60
2022-11-09T04:17:35.165Z,8.60
2022-11-09T04:22:40.784Z,8.60
2022-11-09T04:27:45.667Z,8.50
2022-11-09T04:32:51.070Z,8.60
2022-11-09T04:38:01.558Z,8.70
2022-11-09T04:43:08.875Z,8.80
2022-11-09T04:48:14.373Z,8.30
2022-11-09T04:53:20.504Z,8.30
2022-11-09T04:58:26.685Z,7.90
2022-11-09T05:03:31.939Z,7.80
2022-11-09T05:08:37.135Z,7.60
2022-11-09T05:13:43.025Z,7.40
2022-11-09T05:18:49.026Z,7.20
2022-11-09T05:24:00.097Z,7.00
2022-11-09T05:29:10.536Z,6.90
2022-11-09T05:34:15.620Z,7.10
2022-11-09T05:39:20.801Z,6.60
2022-11-09T05:44:25.957Z,6.90
2022-11-09T05:49:32.704Z,6.80
2022-11-09T05:54:37.837Z,6.60
2022-11-09T05:59:42.807Z,6.40
2022-11-09T06:04:49.022Z,6.30
2022-11-09T06:09:54.491Z,6.60
2022-11-09T06:14:59.992Z,7.30
2022-11-09T06:20:05.151Z,7.70
2022-11-09T06:25:10.860Z,8.10
2022-11-09T06:30:16.377Z,8.20
2022-11-09T06:35:21.645Z,8.30
2022-11-09T06:40:27.824Z,8.00
2022-11-09T06:45:33.355Z,8.40
2022-11-09T06:50:39.007Z,8.70
2022-11-09T06:55:49.073Z,9.10
2022-11-09T07:00:51.170Z,9.40
2022-11-09T07:05:56.871Z,8.60
2022-11-09T07:11:07.959Z,8.30
2022-11-09T07:16:14.478Z,8.50
2022-11-09T07:21:18.935Z,8.50
2022-11-09T07:26:24.928Z,8.50
2022-11-09T07:31:32.221Z,8.60
2022-11-09T07:36:37.348Z,8.70
2022-11-09T07:41:42.789Z,9.00
2022-11-09T07:46:53.324Z,9.20
2022-11-09T07:51:58.795Z,9.60
2022-11-09T07:57:03.759Z,9.90
2022-11-09T08:02:11.707Z,10.10
2022-11-09T08:07:16.998Z,10.10
2022-11-09T08:12:22.203Z,10.20
2022-11-09T08:17:27.357Z,10.20
2022-11-09T08:22:32.516Z,10.40
2022-11-09T08:27:39.426Z,10.60
2022-11-09T08:32:46.021Z,10.70
2022-11-09T08:37:52.988Z,10.90
2022-11-09T08:43:07.378Z,10.90
2022-11-09T08:48:14.194Z,11.00
2022-11-09T08:53:20.196Z,11.00
2022-11-09T08:58:25.847Z,10.90
2022-11-09T09:03:31.068Z,10.80
2022-11-09T09:08:36.867Z,10.80
2022-11-09T09:13:43.765Z,10.90
2022-11-09T09:18:50.132Z,11.10
2022-11-09T09:23:56.069Z,11.20
2022-11-09T09:29:00.958Z,11.00
2022-11-09T09:34:06.096Z,11.30
2022-11-09T09:39:11.282Z,11.30
2022-11-09T09:44:33.991Z,11.30
2022-11-09T09:49:42.145Z,11.30
2022-11-09T09:54:53.708Z,11.20
2022-11-09T10:00:02.058Z,11.30
2022-11-09T10:05:13.269Z,11.10
2022-11-09T10:10:34.005Z,10.80
2022-11-09T10:16:05.885Z,10.60
2022-11-09T10:21:19.394Z,10.60
2022-11-09T10:26:40.354Z,10.60
2022-11-09T10:31:48.648Z,10.70
2022-11-09T10:36:56.607Z,10.70
2022-11-09T10:42:02.164Z,10.70
2022-11-09T10:47:10.413Z,10.90
2022-11-09T10:52:34.986Z,11.60
2022-11-09T10:57:43.498Z,11.40
2022-11-09T11:02:50.887Z,11.20
2022-11-09T11:07:56.883Z,11.30
2022-11-09T11:13:07.874Z,11.50
2022-11-09T11:18:16.601Z,12.00
2022-11-09T11:23:24.874Z,11.80
2022-11-09T11:28:39.396Z,12.00
2022-11-09T11:33:45.323Z,12.00
2022-11-09T11:39:28.036Z,12.10
2022-11-09T11:44:52.094Z,12.30
2022-11-09T11:50:02.804Z,12.40
2022-11-09T11:55:27.733Z,12.40
2022-11-09T12:00:36.597Z,13.10
2022-11-09T12:06:13.751Z,13.50
2022-11-09T12:11:36.465Z,13.70
2022-11-09T12:17:04.092Z,14.10
2022-11-09T12:22:16.874Z,14.20
2022-11-09T12:27:32.854Z,14.60
2022-11-09T12:32:56.513Z,14.60
2022-11-09T12:38:07.361Z,14.30
2022-11-09T12:43:22.145Z,13.90
2022-11-09T12:48:30.932Z,13.70
2022-11-09T12:53:37.937Z,13.70
2022-11-09T12:58:43.616Z,13.40
2022-11-09T13:03:57.219Z,13.40
2022-11-09T13:09:20.058Z,13.00
2022-11-09T13:14:29.147Z,12.60
2022-11-09T13:19:41.087Z,12.50
2022-11-09T13:25:01.440Z,12.70
2022-11-09T13:30:26.535Z,12.40
2022-11-09T13:35:46.389Z,12.50
2022-11-09T13:40:53.242Z,12.40
2022-11-09T13:46:13.331Z,12.30
2022-11-09T13:51:26.801Z,12.30
2022-11-09T13:56:38.349Z,12.30
2022-11-09T14:01:55.552Z,12.30
2022-11-09T14:07:01.313Z,12.30
2022-11-09T14:12:29.117Z,12.10
2022-11-09T14:17:43.511Z,12.00
2022-11-09T14:22:49.231Z,11.80
2022-11-09T14:27:59.090Z,12.00
2022-11-09T14:33:04.180Z,11.70
2022-11-09T14:38:21.822Z,12.10
2022-11-09T14:43:33.885Z,11.90
2022-11-09T14:48:42.039Z,11.60
2022-11-09T14:53:46.777Z,11.80
2022-11-09T14:58:52.363Z,11.50
2022-11-09T15:04:19.192Z,11.50
2022-11-09T15:09:24.882Z,10.70
2022-11-09T15:14:36.132Z,10.80
2022-11-09T15:19:49.859Z,10.70
2022-11-09T15:24:55.945Z,10.50
2022-11-09T15:30:03.858Z,10.20
2022-11-09T15:35:17.902Z,9.90
2022-11-09T15:40:25.671Z,10.40
2022-11-09T15:45:33.462Z,10.30
2022-11-09T15:50:43.243Z,9.70
2022-11-09T15:55:49.280Z,9.90
2022-11-09T16:00:56.285Z,9.70
2022-11-09T16:06:01.019Z,9.40
2022-11-09T16:11:07.892Z,9.20
2022-11-09T16:16:15.352Z,9.20
2022-11-09T16:21:20.891Z,9.30
2022-11-09T16:26:26.406Z,9.10
2022-11-09T16:31:50.947Z,8.90
2022-11-09T16:36:48.063Z,9.20
2022-11-09T16:41:52.526Z,9.20
2022-11-09T16:46:58.779Z,9.00
2022-11-09T16:52:03.714Z,8.90
2022-11-09T16:57:08.818Z,8.80
2022-11-09T17:02:14.607Z,8.80
2022-11-09T17:07:21.411Z,7.90
2022-11-09T17:12:28.669Z,8.10
2022-11-09T17:17:34.129Z,8.10
2022-11-09T17:22:45.744Z,8.20
2022-11-09T17:27:48.818Z,8.00
2022-11-09T17:32:55.121Z,7.90
2022-11-09T17:38:01.216Z,7.80
2022-11-09T17:43:07.378Z,7.90
2022-11-09T17:48:12.147Z,7.50
2022-11-09T17:53:19.427Z,7.50
2022-11-09T17:58:26.028Z,7.60
2022-11-09T18:03:36.601Z,7.60
2022-11-09T18:08:42.645Z,7.40
2022-11-09T18:13:48.449Z,7.70
2022-11-09T18:18:54.945Z,7.40
2022-11-09T18:24:00.861Z,7.60
2022-11-09T18:29:05.809Z,7.90
2022-11-09T18:34:12.467Z,8.70
2022-11-09T18:39:17.640Z,7.90
2022-11-09T18:44:22.853Z,7.80
2022-11-09T18:49:28.554Z,7.90
2022-11-09T18:54:35.118Z,8.10
2022-11-09T18:59:42.614Z,8.00
2022-11-09T19:04:48.611Z,8.10
2022-11-09T19:09:56.478Z,8.20
2022-11-09T19:15:04.557Z,8.10
2022-11-09T19:20:10.037Z,8.00
2022-11-09T19:25:15.747Z,7.60
2022-11-09T19:30:23.515Z,7.50
2022-11-09T19:35:33.508Z,7.40
2022-11-09T19:40:39.800Z,7.60
2022-11-09T19:45:44.339Z,7.50
2022-11-09T19:50:51.603Z,7.40
2022-11-09T19:56:01.247Z,7.30
2022-11-09T20:01:10.665Z,7.30
2022-11-09T20:06:16.163Z,7.40
2022-11-09T20:11:42.555Z,7.40
2022-11-09T20:16:49.270Z,7.20
2022-11-09T20:21:54.648Z,8.30
2022-11-09T20:26:59.733Z,8.00
2022-11-09T20:32:04.797Z,7.70
2022-11-09T20:37:09.946Z,7.50
2022-11-09T20:42:15.283Z,7.70
2022-11-09T20:47:41.907Z,7.80
2022-11-09T20:52:30.031Z,7.90
2022-11-09T20:57:36.219Z,7.70
2022-11-09T21:02:43.090Z,7.90
2022-11-09T21:07:48.403Z,7.70
2022-11-09T21:12:57.240Z,8.20
2022-11-09T21:18:02.807Z,8.60
2022-11-09T21:23:14.517Z,9.00
2022-11-09T21:28:37.686Z,9.10
2022-11-09T21:33:42.804Z,9.30
2022-11-09T21:38:49.141Z,9.40
2022-11-09T21:43:55.863Z,9.40
2022-11-09T21:49:00.928Z,9.40
2022-11-09T21:54:08.669Z,9.40
2022-11-09T21:59:13.688Z,9.30
2022-11-09T22:04:19.053Z,9.30
2022-11-09T22:09:24.390Z,9.30
2022-11-09T22:14:47.925Z,9.10
2022-11-09T22:20:11.113Z,9.10
2022-11-09T22:25:16.927Z,9.00
2022-11-09T22:30:22.225Z,9.10
2022-11-09T22:35:29.239Z,9.00
2022-11-09T22:40:34.809Z,9.10
2022-11-09T22:45:42.977Z,9.00
2022-11-09T22:50:50.584Z,9.00
2022-11-09T22:55:58.507Z,8.80
2022-11-09T23:01:08.667Z,8.80
2022-11-09T23:06:17.432Z,8.90
2022-11-09T23:11:25.345Z,8.80
2022-11-09T23:16:30.782Z,8.80
2022-11-09T23:21:38.085Z,8.80
2022-11-09T23:26:43.369Z,8.70
2022-11-09T23:31:49.308Z,8.90
2022-11-09T23:36:54.532Z,8.90
2022-11-09T23:41:59.647Z,9.00
2022-11-09T23:47:04.935Z,9.20
2022-11-09T23:52:11.567Z,9.10
2022-11-09T23:57:19.645Z,9.00
